Terminal Aerodrome Forecast
Issued by NWS

Home | Current Version | Previous Version | Graphics & Text | Print | Product List | Glossary On
Versions: 1 2 3 4 5 6 7 8 9 10 11 12 13 14 15 16 17 18 19 20 21 22 23 24 25
666
FTUS43 KICT 190520
TAFRSL
TAF
KRSL 190520Z 1906/2006 16010KT P6SM VCSH BKN080 OVC150
      TEMPO 1906/1910 VRB20G30KT -SHRA SCT050 BKN080
     FM191100 11012KT P6SM BKN035
     FM191500 06008KT P6SM BKN015
     FM192000 36012KT P6SM BKN025
     FM200200 33012KT P6SM BKN015
     FM200500 32012KT P6SM BKN025=

USA.gov is the U.S. government's official web portal to all federal, state and local government web resources and services.